createdAt,value
2019-04-28T00:00:31.449Z,17.50
2019-04-28T00:03:00.817Z,17.87
2019-04-28T00:05:30.915Z,18.20
2019-04-28T00:08:03.565Z,18.10
2019-04-28T00:10:32.642Z,19.23
2019-04-28T00:13:01.594Z,18.10
2019-04-28T00:15:30.947Z,18.13
2019-04-28T00:18:01.596Z,18.50
2019-04-28T00:20:37.957Z,18.90
2019-04-28T00:23:08.499Z,18.93
2019-04-28T00:25:38.986Z,18.63
2019-04-28T00:28:07.936Z,19.50
2019-04-28T00:30:36.855Z,20.47
2019-04-28T00:33:05.818Z,20.03
2019-04-28T00:35:35.300Z,20.63
2019-04-28T00:38:04.408Z,19.83
2019-04-28T00:40:33.421Z,19.83
2019-04-28T00:43:02.399Z,19.93
2019-04-28T00:45:31.449Z,20.33
2019-04-28T00:48:01.006Z,18.80
2019-04-28T00:50:31.616Z,20.77
2019-04-28T00:53:01.718Z,19.00
2019-04-28T00:55:32.015Z,19.27
2019-04-28T00:58:02.097Z,20.00
2019-04-28T01:00:32.720Z,20.80
2019-04-28T01:03:02.229Z,19.93
2019-04-28T01:05:32.121Z,19.83
2019-04-28T01:08:01.224Z,19.37
2019-04-28T01:10:31.530Z,19.70
2019-04-28T01:13:02.153Z,19.57
2019-04-28T01:15:32.852Z,19.10
2019-04-28T01:18:03.574Z,19.20
2019-04-28T01:20:32.513Z,18.73
2019-04-28T01:23:04.696Z,19.10
2019-04-28T01:25:37.362Z,18.07
2019-04-28T01:28:06.493Z,19.30
2019-04-28T01:30:55.215Z,20.73
2019-04-28T01:33:37.700Z,21.27
2019-04-28T01:36:06.707Z,20.30
2019-04-28T01:38:35.615Z,21.50
2019-04-28T01:41:04.600Z,20.30
2019-04-28T01:43:33.501Z,20.27
2019-04-28T01:46:02.492Z,20.57
2019-04-28T01:48:31.584Z,21.13
2019-04-28T01:51:00.641Z,20.17
2019-04-28T01:53:30.810Z,22.03
2019-04-28T01:55:59.956Z,20.37
2019-04-28T01:58:29.685Z,21.30
2019-04-28T02:00:59.586Z,19.77
2019-04-28T02:03:30.597Z,21.83
2019-04-28T02:06:00.139Z,21.13
2019-04-28T02:08:30.213Z,21.33
2019-04-28T02:11:00.141Z,19.83
2019-04-28T02:13:29.881Z,19.20
2019-04-28T02:16:00.055Z,21.07
2019-04-28T02:18:29.930Z,20.80
2019-04-28T02:21:00.683Z,21.33
2019-04-28T02:23:31.172Z,20.93
2019-04-28T02:26:00.131Z,20.03
2019-04-28T02:28:29.558Z,20.83
2019-04-28T02:31:02.020Z,21.33
2019-04-28T02:33:31.239Z,20.57
2019-04-28T02:36:01.452Z,21.00
2019-04-28T02:38:31.398Z,21.53
2019-04-28T02:41:01.214Z,21.90
2019-04-28T02:43:30.793Z,21.90
2019-04-28T02:46:00.743Z,22.33
2019-04-28T02:48:30.982Z,21.83
2019-04-28T02:51:07.893Z,21.80
2019-04-28T02:53:40.685Z,22.70
2019-04-28T02:56:11.296Z,23.43
2019-04-28T02:58:41.548Z,22.47
2019-04-28T03:01:18.789Z,23.03
2019-04-28T03:03:41.020Z,22.73
2019-04-28T03:06:10.824Z,23.30
2019-04-28T03:08:40.628Z,24.50
2019-04-28T03:11:10.670Z,24.17
2019-04-28T03:13:41.083Z,22.73
2019-04-28T03:16:10.917Z,22.43
2019-04-28T03:18:41.206Z,22.13
2019-04-28T03:21:11.445Z,22.57
2019-04-28T03:23:40.762Z,23.03
2019-04-28T03:26:11.413Z,22.67
2019-04-28T03:29:00.803Z,23.37
2019-04-28T03:32:01.079Z,23.40
2019-04-28T03:34:06.761Z,24.43
2019-04-28T03:36:35.742Z,24.50
2019-04-28T03:39:07.003Z,24.27
2019-04-28T03:41:35.980Z,23.53
2019-04-28T03:44:05.072Z,23.43
2019-04-28T03:46:41.482Z,22.77
2019-04-28T03:49:12.029Z,22.50
2019-04-28T03:51:40.997Z,22.97
2019-04-28T03:54:10.375Z,23.80
2019-04-28T03:56:41.283Z,23.40
2019-04-28T03:59:10.440Z,22.87
2019-04-28T04:01:59.644Z,21.57
2019-04-28T04:04:26.338Z,22.40
2019-04-28T04:06:55.215Z,21.93
2019-04-28T04:09:25.701Z,23.73
2019-04-28T04:12:12.626Z,22.57
2019-04-28T04:14:43.132Z,21.33
2019-04-28T04:17:30.972Z,22.03
2019-04-28T04:20:01.839Z,21.43
2019-04-28T04:22:31.513Z,19.93
2019-04-28T04:25:01.269Z,20.37
2019-04-28T04:27:30.986Z,20.43
2019-04-28T04:30:01.622Z,19.90
2019-04-28T04:32:33.855Z,18.10
2019-04-28T04:35:01.187Z,19.30
2019-04-28T04:37:30.841Z,19.33
2019-04-28T04:40:01.292Z,19.53
2019-04-28T04:42:30.840Z,18.53
2019-04-28T04:45:00.563Z,17.03
2019-04-28T04:47:32.512Z,16.87
2019-04-28T04:50:00.437Z,16.10
2019-04-28T04:52:30.456Z,15.70
2019-04-28T04:55:01.319Z,15.77
2019-04-28T04:57:32.210Z,17.47
2019-04-28T05:00:02.006Z,16.47
2019-04-28T05:02:33.300Z,15.30
2019-04-28T05:05:03.854Z,15.10
2019-04-28T05:07:32.657Z,14.57
2019-04-28T05:10:01.576Z,14.57
2019-04-28T05:12:30.651Z,15.03
2019-04-28T05:15:00.517Z,14.67
2019-04-28T05:17:30.181Z,14.00
2019-04-28T05:19:59.693Z,13.93
2019-04-28T05:22:31.277Z,13.90
2019-04-28T05:25:11.960Z,12.30
2019-04-28T05:27:40.893Z,12.80
2019-04-28T05:30:10.731Z,12.10
2019-04-28T05:32:45.503Z,11.67
2019-04-28T05:35:10.926Z,11.07
2019-04-28T05:37:40.477Z,10.47
2019-04-28T05:40:10.512Z,10.30
2019-04-28T05:42:41.238Z,11.33
2019-04-28T05:45:10.431Z,10.67
2019-04-28T05:47:40.785Z,10.10
2019-04-28T05:50:17.303Z,10.30
2019-04-28T05:53:04.263Z,9.87
2019-04-28T05:55:39.389Z,10.07
2019-04-28T05:58:27.518Z,9.93
2019-04-28T06:01:14.672Z,9.37
2019-04-28T06:03:47.455Z,8.77
2019-04-28T06:06:20.424Z,9.10
2019-04-28T06:09:07.147Z,9.17
2019-04-28T06:11:41.946Z,8.63
2019-04-28T06:14:20.970Z,8.80
2019-04-28T06:17:04.024Z,9.43
2019-04-28T06:19:36.126Z,9.33
2019-04-28T06:22:13.872Z,8.80
2019-04-28T06:24:43.885Z,8.17
2019-04-28T06:27:12.939Z,8.70
2019-04-28T06:29:41.937Z,8.50
2019-04-28T06:32:11.396Z,8.50
2019-04-28T06:34:41.010Z,9.63
2019-04-28T06:37:10.118Z,8.23
2019-04-28T06:39:39.243Z,7.90
2019-04-28T06:42:08.811Z,7.10
2019-04-28T06:44:37.878Z,6.60
2019-04-28T06:47:07.086Z,6.00
2019-04-28T06:49:36.098Z,6.47
2019-04-28T06:52:05.417Z,6.40
2019-04-28T06:54:35.070Z,6.23
2019-04-28T06:57:04.154Z,5.70
2019-04-28T06:59:33.464Z,6.30
2019-04-28T07:02:02.484Z,6.40
2019-04-28T07:04:31.452Z,5.83
2019-04-28T07:07:00.396Z,6.40
2019-04-28T07:09:29.354Z,5.97
2019-04-28T07:11:58.356Z,6.00
2019-04-28T07:14:27.276Z,5.57
2019-04-28T07:16:56.336Z,5.77
2019-04-28T07:19:25.235Z,6.30
2019-04-28T07:22:13.814Z,5.53
2019-04-28T07:24:44.858Z,5.50
2019-04-28T07:27:13.362Z,5.60
2019-04-28T07:29:42.264Z,6.87
2019-04-28T07:32:11.211Z,6.07
2019-04-28T07:34:40.223Z,5.80
2019-04-28T07:37:09.186Z,5.87
2019-04-28T07:39:38.087Z,6.13
2019-04-28T07:42:07.050Z,5.83
2019-04-28T07:44:35.973Z,4.97
2019-04-28T07:47:05.058Z,6.37
2019-04-28T07:49:33.996Z,5.40
2019-04-28T07:52:04.576Z,5.50
2019-04-28T07:54:33.543Z,5.00
2019-04-28T07:57:02.454Z,6.17
2019-04-28T07:59:31.406Z,4.50
2019-04-28T08:02:00.405Z,5.00
2019-04-28T08:04:29.373Z,4.87
2019-04-28T08:06:58.290Z,5.33
2019-04-28T08:09:27.260Z,5.13
2019-04-28T08:11:56.167Z,5.50
2019-04-28T08:14:25.110Z,5.10
2019-04-28T08:16:54.001Z,5.47
2019-04-28T08:19:22.949Z,4.93
2019-04-28T08:21:51.859Z,5.13
2019-04-28T08:24:20.806Z,4.97
2019-04-28T08:26:49.709Z,5.27
2019-04-28T08:29:18.854Z,4.93
2019-04-28T08:31:55.252Z,5.17
2019-04-28T08:34:24.210Z,4.80
2019-04-28T08:36:53.138Z,4.57
2019-04-28T08:39:24.181Z,5.33
2019-04-28T08:41:52.644Z,5.67
2019-04-28T08:44:21.581Z,5.97
2019-04-28T08:46:50.488Z,5.40
2019-04-28T08:49:19.426Z,5.33
2019-04-28T08:51:48.385Z,5.73
2019-04-28T08:54:17.398Z,6.60
2019-04-28T08:56:46.382Z,5.80
2019-04-28T08:59:15.298Z,5.90
2019-04-28T09:01:44.242Z,6.90
2019-04-28T09:04:15.619Z,5.27
2019-04-28T09:06:43.761Z,6.17
2019-04-28T09:09:14.254Z,5.73
2019-04-28T09:11:43.297Z,5.43
2019-04-28T09:14:12.204Z,6.23
2019-04-28T09:16:41.171Z,5.67
2019-04-28T09:19:10.139Z,5.97
2019-04-28T09:21:39.122Z,6.57
2019-04-28T09:24:08.049Z,6.10
2019-04-28T09:26:37.247Z,5.60
2019-04-28T09:29:06.185Z,5.17
2019-04-28T09:31:35.174Z,5.20
2019-04-28T09:34:04.121Z,5.80
2019-04-28T09:36:33.110Z,5.23
2019-04-28T09:39:02.118Z,5.87
2019-04-28T09:41:31.209Z,5.87
2019-04-28T09:44:10.526Z,5.67
2019-04-28T09:46:49.930Z,5.53
2019-04-28T09:49:18.840Z,5.63
2019-04-28T09:51:47.790Z,5.63
2019-04-28T09:54:16.699Z,5.87
2019-04-28T09:56:56.032Z,5.77
2019-04-28T09:59:16.199Z,5.53
2019-04-28T10:01:45.166Z,5.90
2019-04-28T10:04:14.686Z,6.13
2019-04-28T10:06:43.644Z,6.43
2019-04-28T10:09:13.029Z,5.63
2019-04-28T10:11:41.998Z,6.60
2019-04-28T10:14:16.479Z,7.20
2019-04-28T10:16:48.137Z,6.70
2019-04-28T10:19:19.230Z,7.10
2019-04-28T10:21:48.774Z,8.50
2019-04-28T10:24:17.757Z,8.53
2019-04-28T10:26:46.709Z,9.27
2019-04-28T10:29:15.677Z,7.93
2019-04-28T10:31:44.618Z,7.87
2019-04-28T10:34:13.597Z,8.07
2019-04-28T10:36:42.558Z,8.33
2019-04-28T10:39:25.374Z,8.40
2019-04-28T10:41:54.289Z,8.43
2019-04-28T10:44:24.003Z,9.37
2019-04-28T10:46:53.159Z,8.67
2019-04-28T10:49:22.157Z,9.47
2019-04-28T10:51:59.118Z,8.33
2019-04-28T10:54:21.731Z,9.03
2019-04-28T10:56:50.704Z,9.80
2019-04-28T10:59:19.701Z,9.80
2019-04-28T11:01:48.606Z,9.33
2019-04-28T11:04:35.402Z,10.27
2019-04-28T11:07:04.543Z,8.97
2019-04-28T11:09:35.103Z,9.03
2019-04-28T11:12:05.746Z,9.63
2019-04-28T11:14:34.697Z,11.13
2019-04-28T11:17:03.632Z,11.13
2019-04-28T11:19:32.626Z,11.63
2019-04-28T11:22:01.549Z,14.40
2019-04-28T11:24:30.534Z,12.60
2019-04-28T11:26:59.441Z,14.37
2019-04-28T11:29:28.378Z,14.40
2019-04-28T11:31:57.317Z,14.77
2019-04-28T11:34:33.870Z,14.37
2019-04-28T11:37:02.778Z,14.27
2019-04-28T11:39:33.274Z,15.50
2019-04-28T11:42:02.260Z,15.37
2019-04-28T11:44:31.231Z,15.27
2019-04-28T11:47:00.220Z,17.03
2019-04-28T11:49:29.271Z,16.27
2019-04-28T11:51:58.197Z,15.00
2019-04-28T11:54:27.089Z,16.00
2019-04-28T11:56:56.046Z,15.87
2019-04-28T11:59:25.189Z,15.43
2019-04-28T12:01:54.749Z,16.50
2019-04-28T12:04:23.642Z,16.83
2019-04-28T12:06:52.591Z,16.40
2019-04-28T12:09:29.109Z,16.60
2019-04-28T12:12:02.607Z,17.00
2019-04-28T12:14:33.208Z,17.47
2019-04-28T12:17:06.709Z,18.00
2019-04-28T12:19:43.207Z,20.33
2019-04-28T12:22:12.160Z,20.23
2019-04-28T12:24:41.072Z,19.50
2019-04-28T12:27:10.112Z,19.77
2019-04-28T12:29:39.024Z,19.57
2019-04-28T12:32:07.994Z,18.87
2019-04-28T12:34:36.899Z,18.30
2019-04-28T12:37:05.852Z,18.67
2019-04-28T12:39:34.761Z,16.90
2019-04-28T12:42:03.720Z,15.40
2019-04-28T12:44:32.639Z,15.23
2019-04-28T12:47:01.590Z,14.13
2019-04-28T12:49:34.761Z,11.30
2019-04-28T12:52:04.009Z,9.60
2019-04-28T12:54:34.494Z,9.00
2019-04-28T12:57:03.445Z,8.47
2019-04-28T12:59:39.880Z,9.40
2019-04-28T13:02:25.665Z,8.40
2019-04-28T13:04:56.144Z,9.50
2019-04-28T13:07:25.108Z,9.20
2019-04-28T13:09:54.103Z,9.83
2019-04-28T13:12:23.430Z,9.57
2019-04-28T13:14:52.364Z,9.87
2019-04-28T13:17:21.311Z,11.03
2019-04-28T13:19:50.213Z,10.37
2019-04-28T13:22:19.171Z,10.13
2019-04-28T13:24:48.083Z,9.57
2019-04-28T13:27:17.179Z,10.27
2019-04-28T13:29:46.160Z,9.40
2019-04-28T13:32:15.184Z,9.80
2019-04-28T13:34:44.126Z,11.73
2019-04-28T13:37:13.476Z,10.87
2019-04-28T13:39:53.126Z,11.77
2019-04-28T13:42:22.076Z,10.07
2019-04-28T13:44:52.570Z,10.43
2019-04-28T13:47:26.656Z,9.37
2019-04-28T13:49:57.093Z,9.80
2019-04-28T13:52:25.980Z,9.27
2019-04-28T13:55:05.476Z,10.47
2019-04-28T13:57:34.522Z,10.37
2019-04-28T14:00:06.687Z,10.67
2019-04-28T14:02:55.044Z,10.07
2019-04-28T14:05:28.644Z,9.40
2019-04-28T14:07:57.608Z,11.17
2019-04-28T14:10:26.555Z,8.57
2019-04-28T14:12:55.464Z,8.70
2019-04-28T14:15:24.423Z,8.47
2019-04-28T14:17:53.334Z,6.90
2019-04-28T14:20:23.201Z,6.60
2019-04-28T14:22:52.109Z,6.77
2019-04-28T14:25:21.095Z,7.23
2019-04-28T14:27:50.069Z,7.90
2019-04-28T14:30:23.887Z,7.90
2019-04-28T14:32:54.310Z,7.33
2019-04-28T14:35:24.789Z,7.50
2019-04-28T14:37:53.916Z,7.10
2019-04-28T14:40:22.979Z,6.90
2019-04-28T14:42:52.923Z,6.87
2019-04-28T14:45:22.135Z,7.10
2019-04-28T14:47:51.069Z,6.67
2019-04-28T14:50:20.259Z,6.93
2019-04-28T14:52:49.259Z,6.47
2019-04-28T14:55:19.166Z,6.83
2019-04-28T14:57:48.654Z,6.47
2019-04-28T15:00:34.235Z,7.13
2019-04-28T15:03:04.787Z,6.73
2019-04-28T15:05:39.283Z,7.20
2019-04-28T15:08:26.327Z,6.73
2019-04-28T15:11:12.897Z,6.43
2019-04-28T15:13:41.880Z,5.33
2019-04-28T15:16:10.806Z,5.27
2019-04-28T15:18:39.768Z,4.50
2019-04-28T15:21:08.778Z,5.20
2019-04-28T15:23:38.700Z,4.50
2019-04-28T15:26:07.465Z,4.37
2019-04-28T15:28:36.439Z,4.77
2019-04-28T15:31:05.433Z,4.47
2019-04-28T15:33:34.344Z,4.20
2019-04-28T15:36:03.270Z,4.10
2019-04-28T15:38:32.472Z,4.73
2019-04-28T15:41:01.440Z,4.17
2019-04-28T15:43:30.335Z,4.10
2019-04-28T15:45:59.279Z,3.93
2019-04-28T15:48:28.187Z,3.83
2019-04-28T15:50:57.095Z,4.40
2019-04-28T15:53:26.046Z,3.97
2019-04-28T15:55:58.410Z,3.93
2019-04-28T15:58:34.807Z,4.47
2019-04-28T16:01:04.056Z,5.30
2019-04-28T16:03:33.178Z,4.47
2019-04-28T16:06:02.090Z,4.43
2019-04-28T16:08:31.051Z,5.00
2019-04-28T16:10:59.961Z,4.77
2019-04-28T16:13:28.907Z,5.03
2019-04-28T16:15:57.826Z,5.77
2019-04-28T16:18:26.771Z,5.60
2019-04-28T16:20:55.815Z,5.13
2019-04-28T16:23:24.928Z,5.30
2019-04-28T16:25:54.006Z,4.90
2019-04-28T16:28:23.088Z,4.90
2019-04-28T16:30:52.025Z,5.27
2019-04-28T16:33:21.134Z,5.70
2019-04-28T16:35:50.280Z,5.90
2019-04-28T16:38:19.375Z,5.57
2019-04-28T16:40:48.367Z,5.80
2019-04-28T16:43:17.572Z,4.97
2019-04-28T16:45:47.186Z,4.90
2019-04-28T16:48:16.269Z,4.37
2019-04-28T16:50:45.262Z,4.20
2019-04-28T16:53:14.351Z,4.70
2019-04-28T16:55:51.266Z,4.73
2019-04-28T16:58:25.954Z,5.17
2019-04-28T17:00:58.402Z,4.70
2019-04-28T17:03:28.855Z,4.23
2019-04-28T17:05:57.948Z,4.80
2019-04-28T17:08:26.908Z,5.07
2019-04-28T17:10:58.643Z,5.47
2019-04-28T17:13:27.792Z,4.53
2019-04-28T17:15:56.787Z,5.07
2019-04-28T17:18:26.289Z,4.73
2019-04-28T17:20:57.575Z,4.70
2019-04-28T17:23:26.627Z,5.27
2019-04-28T17:25:55.721Z,5.57
2019-04-28T17:28:24.715Z,5.03
2019-04-28T17:30:53.620Z,5.10
2019-04-28T17:33:22.571Z,5.10
2019-04-28T17:35:51.493Z,4.47
2019-04-28T17:38:20.482Z,4.90
2019-04-28T17:40:49.471Z,5.67
2019-04-28T17:43:18.564Z,5.13
2019-04-28T17:45:47.472Z,4.93
2019-04-28T17:48:33.185Z,5.77
2019-04-28T17:51:02.097Z,5.23
2019-04-28T17:53:31.146Z,5.53
2019-04-28T17:56:00.123Z,5.57
2019-04-28T17:58:29.066Z,5.87
2019-04-28T18:01:15.754Z,5.20
2019-04-28T18:03:46.360Z,5.30
2019-04-28T18:06:22.738Z,5.57
2019-04-28T18:08:51.699Z,5.40
2019-04-28T18:11:20.614Z,5.50
2019-04-28T18:13:49.584Z,4.77
2019-04-28T18:16:36.287Z,4.87
2019-04-28T18:19:06.809Z,5.33
2019-04-28T18:21:35.713Z,4.50
2019-04-28T18:24:04.665Z,4.80
2019-04-28T18:26:33.562Z,4.37
2019-04-28T18:29:02.530Z,5.20
2019-04-28T18:31:39.058Z,4.87
2019-04-28T18:34:10.060Z,5.40
2019-04-28T18:36:55.871Z,5.07
2019-04-28T18:39:42.784Z,4.90
2019-04-28T18:42:14.783Z,5.07
2019-04-28T18:44:43.894Z,5.27
2019-04-28T18:47:12.804Z,5.80
2019-04-28T18:49:41.766Z,6.40
2019-04-28T18:52:10.686Z,6.40
2019-04-28T18:54:39.598Z,6.30
2019-04-28T18:57:08.590Z,7.03
2019-04-28T18:59:37.551Z,7.87
2019-04-28T19:02:08.065Z,7.90
2019-04-28T19:04:36.961Z,6.87
2019-04-28T19:07:07.771Z,6.83
2019-04-28T19:09:38.254Z,6.57
2019-04-28T19:12:08.780Z,6.80
2019-04-28T19:14:39.277Z,7.33
2019-04-28T19:17:09.799Z,6.40
2019-04-28T19:19:40.246Z,6.63
2019-04-28T19:22:09.878Z,6.13
2019-04-28T19:24:38.836Z,6.47
2019-04-28T19:27:07.785Z,5.63
2019-04-28T19:29:36.713Z,7.20
2019-04-28T19:32:05.630Z,6.43
2019-04-28T19:34:34.534Z,6.63
2019-04-28T19:37:03.577Z,7.27
2019-04-28T19:39:32.475Z,6.40
2019-04-28T19:42:01.418Z,5.60
2019-04-28T19:44:30.327Z,7.37
2019-04-28T19:46:59.447Z,7.00
2019-04-28T19:49:28.349Z,7.27
2019-04-28T19:51:57.313Z,8.17
2019-04-28T19:54:27.804Z,8.00
2019-04-28T19:56:58.366Z,7.30
2019-04-28T19:59:29.727Z,7.57
2019-04-28T20:01:58.670Z,7.90
2019-04-28T20:04:27.579Z,8.43
2019-04-28T20:06:56.499Z,8.70
2019-04-28T20:09:25.462Z,9.17
2019-04-28T20:11:54.582Z,9.33
2019-04-28T20:14:23.537Z,10.47
2019-04-28T20:16:52.433Z,9.00
2019-04-28T20:19:21.407Z,9.50
2019-04-28T20:21:50.320Z,10.13
2019-04-28T20:24:20.677Z,10.23
2019-04-28T20:26:49.659Z,10.57
2019-04-28T20:29:18.601Z,10.73
2019-04-28T20:31:47.505Z,10.83
2019-04-28T20:34:16.458Z,11.10
2019-04-28T20:36:55.952Z,11.63
2019-04-28T20:39:26.569Z,11.63
2019-04-28T20:41:56.652Z,11.83
2019-04-28T20:44:25.675Z,13.33
2019-04-28T20:46:54.777Z,13.20
2019-04-28T20:49:23.806Z,15.03
2019-04-28T20:51:53.018Z,15.03
2019-04-28T20:54:22.032Z,17.07
2019-04-28T20:56:50.939Z,15.60
2019-04-28T20:59:19.873Z,18.10
2019-04-28T21:01:48.777Z,17.03
2019-04-28T21:04:18.962Z,18.83
2019-04-28T21:06:47.861Z,17.77
2019-04-28T21:09:16.863Z,17.23
2019-04-28T21:11:45.757Z,18.80
2019-04-28T21:14:14.782Z,18.07
2019-04-28T21:16:43.678Z,18.97
2019-04-28T21:19:12.631Z,18.07
2019-04-28T21:21:41.534Z,17.67
2019-04-28T21:24:12.008Z,19.00
2019-04-28T21:26:41.199Z,19.37
2019-04-28T21:29:10.146Z,18.90
2019-04-28T21:31:39.471Z,20.30
2019-04-28T21:34:08.412Z,20.17
2019-04-28T21:36:37.329Z,20.80
2019-04-28T21:39:08.811Z,21.00
2019-04-28T21:41:37.758Z,20.57
2019-04-28T21:44:14.206Z,20.73
2019-04-28T21:46:50.419Z,21.63
2019-04-28T21:49:21.071Z,21.40
2019-04-28T21:51:50.067Z,22.87
2019-04-28T21:54:18.971Z,22.20
2019-04-28T21:56:47.920Z,22.17
2019-04-28T21:59:16.826Z,22.27
2019-04-28T22:01:45.873Z,22.07
2019-04-28T22:04:14.803Z,22.00
2019-04-28T22:06:44.536Z,21.67
2019-04-28T22:09:13.653Z,22.57
2019-04-28T22:11:42.598Z,23.03
2019-04-28T22:14:11.498Z,24.43
2019-04-28T22:16:40.444Z,23.97
2019-04-28T22:19:09.383Z,24.43
2019-04-28T22:21:38.332Z,25.00
2019-04-28T22:24:14.655Z,26.13
2019-04-28T22:26:45.196Z,25.40
2019-04-28T22:29:14.809Z,24.13
2019-04-28T22:31:43.944Z,26.40
2019-04-28T22:34:14.565Z,26.33
2019-04-28T22:36:46.862Z,26.23
2019-04-28T22:39:16.265Z,25.77
2019-04-28T22:41:45.327Z,29.23
2019-04-28T22:44:14.222Z,28.07
2019-04-28T22:46:43.196Z,28.57
2019-04-28T22:49:12.093Z,28.53
2019-04-28T22:51:41.047Z,29.00
2019-04-28T22:54:17.343Z,29.43
2019-04-28T22:56:48.304Z,29.53
2019-04-28T22:59:18.781Z,29.53
2019-04-28T23:01:52.023Z,30.40
2019-04-28T23:04:27.984Z,28.77
2019-04-28T23:06:56.930Z,29.63
2019-04-28T23:09:25.845Z,31.80
2019-04-28T23:11:54.797Z,30.30
2019-04-28T23:14:23.697Z,32.40
2019-04-28T23:16:52.644Z,30.43
2019-04-28T23:19:23.114Z,29.70
2019-04-28T23:21:53.649Z,30.73
2019-04-28T23:24:22.856Z,30.50
2019-04-28T23:26:51.757Z,31.40
2019-04-28T23:29:20.755Z,30.07
2019-04-28T23:31:49.694Z,30.73
2019-04-28T23:34:18.639Z,28.70
2019-04-28T23:36:47.536Z,30.27
2019-04-28T23:39:16.487Z,28.07
2019-04-28T23:41:46.967Z,29.10
2019-04-28T23:44:15.931Z,29.70
2019-04-28T23:46:58.233Z,28.93
2019-04-28T23:49:28.674Z,29.83
2019-04-28T23:52:07.955Z,29.03
2019-04-28T23:54:38.487Z,29.20
2019-04-28T23:57:07.562Z,28.50
2019-04-28T23:59:36.536Z,30.70
